Time;durP1;ratioP1;P1;durP2;ratioP2;P2;SDS_P1;SDS_P2;PMS_P1;PMS_P2;Temp;Humidity;BMP_temperature;BMP_pressure;BME280_temperature;BME280_humidity;BME280_pressure;Samples;Min_cycle;Max_cycle;Signal;HPM_P1;HPM_P2
2023/01/18 00:00:46;;;;;;;18.98;10.05;;;;;;;-3.56;100.00;99042.38;5029094;28;20072;-74
2023/01/18 00:03:12;;;;;;;20.35;10.57;;;;;;;-3.57;100.00;99038.00;5030555;28;20053;-74
2023/01/18 00:05:42;;;;;;;22.70;10.02;;;;;;;-3.56;100.00;99036.22;5028183;28;20566;-74
2023/01/18 00:08:12;;;;;;;19.73;9.73;;;;;;;-3.56;100.00;99034.41;5010697;28;20489;-75
2023/01/18 00:10:38;;;;;;;17.17;9.70;;;;;;;-3.57;100.00;99031.84;5028431;28;20038;-74
2023/01/18 00:13:05;;;;;;;22.20;9.95;;;;;;;-3.56;100.00;99034.41;5028179;28;20091;-74
2023/01/18 00:15:31;;;;;;;18.50;10.88;;;;;;;-3.59;100.00;99034.56;5028185;28;20069;-74
2023/01/18 00:17:57;;;;;;;18.30;9.38;;;;;;;-3.60;100.00;99024.84;5028513;28;20501;-75
2023/01/18 00:20:24;;;;;;;19.60;10.13;;;;;;;-3.62;100.00;99035.56;5028014;28;20114;-74
2023/01/18 00:22:50;;;;;;;23.17;11.15;;;;;;;-3.62;100.00;99037.34;5026452;28;20508;-74
2023/01/18 00:25:17;;;;;;;20.52;9.93;;;;;;;-3.67;100.00;99039.34;5027084;28;20041;-75
2023/01/18 00:27:51;;;;;;;22.45;10.18;;;;;;;-3.69;100.00;99034.06;5027240;28;20120;-74
2023/01/18 00:30:20;;;;;;;20.63;9.93;;;;;;;-3.70;100.00;99039.47;5026600;28;20040;-76
2023/01/18 00:32:53;;;;;;;18.10;9.77;;;;;;;-3.71;100.00;99041.25;5033967;28;20385;-75
2023/01/18 00:35:21;;;;;;;16.98;9.25;;;;;;;-3.73;100.00;99042.25;5028139;28;20072;-74
2023/01/18 00:37:50;;;;;;;23.80;11.00;;;;;;;-3.74;100.00;99052.00;5026431;28;20028;-76
2023/01/18 00:40:17;;;;;;;20.40;10.55;;;;;;;-3.77;100.00;99051.31;5046643;28;20583;-74
2023/01/18 00:45:27;;;;;;;21.13;10.40;;;;;;;-3.82;100.00;99051.50;5037810;28;20439;-75
2023/01/18 00:47:52;;;;;;;18.73;10.55;;;;;;;-3.80;100.00;99060.25;5046751;28;20040;-74
2023/01/18 00:50:21;;;;;;;23.52;10.95;;;;;;;-3.84;100.00;99050.69;5044516;28;20081;-74
2023/01/18 00:52:48;;;;;;;19.08;10.02;;;;;;;-3.82;100.00;99055.94;5046198;28;20037;-75
2023/01/18 00:55:15;;;;;;;21.10;10.05;;;;;;;-3.86;100.00;99055.22;5045137;28;20064;-76
2023/01/18 00:57:41;;;;;;;20.58;9.88;;;;;;;-3.90;100.00;99046.50;5041317;28;20415;-74
2023/01/18 01:00:10;;;;;;;21.35;9.90;;;;;;;-3.89;100.00;99052.69;5031449;28;20056;-74
2023/01/18 01:02:40;;;;;;;19.50;9.90;;;;;;;-3.89;100.00;99052.69;5026536;28;20446;-74
2023/01/18 01:07:58;;;;;;;17.50;9.10;;;;;;;-3.90;100.00;99050.97;5027975;28;20120;-74
2023/01/18 01:10:23;;;;;;;16.40;10.18;;;;;;;-3.93;100.00;99054.59;5010064;28;20128;-74
2023/01/18 01:26:31;;;;;;;16.83;9.65;;;;;;;-4.01;100.00;99063.81;5051623;28;20037;-74
2023/01/18 01:28:56;;;;;;;20.10;9.50;;;;;;;-4.01;100.00;99061.16;5014714;28;20029;-75
2023/01/18 01:31:21;;;;;;;19.08;9.20;;;;;;;-4.00;100.00;99065.56;5029991;28;20041;-74
2023/01/18 01:33:50;;;;;;;24.20;9.38;;;;;;;-4.03;100.00;99060.38;5030029;28;20022;-74
2023/01/18 01:36:18;;;;;;;15.45;8.48;;;;;;;-4.03;100.00;99071.84;5031565;28;20048;-75
2023/01/18 01:38:44;;;;;;;20.25;10.32;;;;;;;-4.03;100.00;99085.13;5030159;28;20160;-75
2023/01/18 01:41:19;;;;;;;17.90;9.63;;;;;;;-4.04;100.00;99079.91;5034927;28;20037;-74
2023/01/18 01:43:45;;;;;;;19.40;9.18;;;;;;;-4.05;100.00;99080.81;5036068;28;20485;-74
2023/01/18 01:46:26;;;;;;;18.05;9.52;;;;;;;-4.08;100.00;99089.78;5031704;28;20109;-74
2023/01/18 01:49:01;;;;;;;17.27;8.85;;;;;;;-4.10;100.00;99094.28;5029354;28;20484;-74
2023/01/18 01:51:27;;;;;;;20.35;9.18;;;;;;;-4.12;100.00;99091.69;5030810;28;20044;-74
2023/01/18 01:53:53;;;;;;;18.05;8.88;;;;;;;-4.11;100.00;99103.16;5044243;28;20028;-75
2023/01/18 01:56:20;;;;;;;15.82;8.43;;;;;;;-4.15;100.00;99099.78;5033251;28;20129;-74
2023/01/18 01:58:49;;;;;;;17.40;8.98;;;;;;;-4.15;100.00;99097.13;5035189;28;20332;-74
2023/01/18 02:01:15;;;;;;;21.15;9.25;;;;;;;-4.17;100.00;99093.66;5030895;28;20037;-75
2023/01/18 02:03:41;;;;;;;16.50;9.00;;;;;;;-4.16;100.00;99098.03;5030422;28;20029;-74
2023/01/18 02:06:30;;;;;;;16.42;9.60;;;;;;;-4.17;100.00;99098.09;5030134;28;20123;-74
2023/01/18 02:08:57;;;;;;;17.80;9.07;;;;;;;-4.18;100.00;99099.03;5029671;28;20369;-74
2023/01/18 02:11:22;;;;;;;16.48;8.55;;;;;;;-4.16;100.00;99099.84;5030922;28;20424;-74
2023/01/18 02:13:48;;;;;;;19.27;8.95;;;;;;;-4.17;100.00;99101.63;5030331;28;20033;-74
2023/01/18 02:16:40;;;;;;;24.05;9.27;;;;;;;-4.15;100.00;99101.56;5029864;28;20026;-75
2023/01/18 02:19:12;;;;;;;20.08;9.77;;;;;;;-4.15;100.00;99093.59;5042274;28;20044;-74
2023/01/18 02:21:52;;;;;;;20.02;9.25;;;;;;;-4.17;100.00;99082.19;5048965;28;20423;-73
2023/01/18 02:24:55;;;;;;;14.70;9.05;;;;;;;-4.14;100.00;99074.97;5048429;28;20112;-74
2023/01/18 02:27:24;;;;;;;20.25;9.98;;;;;;;-4.03;100.00;99093.09;5047770;28;20048;-74
2023/01/18 02:29:52;;;;;;;23.63;9.30;;;;;;;-4.01;100.00;99096.56;5030710;28;20572;-74
2023/01/18 02:32:51;;;;;;;19.10;8.18;;;;;;;-3.98;100.00;99099.06;5030619;28;20085;-74
2023/01/18 02:35:39;;;;;;;14.27;8.10;;;;;;;-3.99;100.00;99102.66;5028910;28;20046;-74
2023/01/18 02:38:10;;;;;;;17.63;8.70;;;;;;;-4.01;100.00;99103.66;5029463;28;20044;-74
2023/01/18 02:41:02;;;;;;;13.60;8.40;;;;;;;-4.05;100.00;99097.63;5030119;28;20481;-74
2023/01/18 02:46:34;;;;;;;21.80;9.80;;;;;;;-4.07;100.00;99110.06;5029034;28;20041;-74
2023/01/18 02:49:32;;;;;;;18.27;8.55;;;;;;;-4.07;100.00;99122.50;5029758;28;20493;-75
2023/01/18 02:52:02;;;;;;;15.27;8.75;;;;;;;-4.13;100.00;99118.31;5017291;28;20520;-75
2023/01/18 02:54:30;;;;;;;19.55;10.40;;;;;;;-4.16;100.00;99124.59;5029748;28;20038;-74
2023/01/18 02:56:58;;;;;;;17.45;8.85;;;;;;;-4.17;100.00;99124.66;5029974;28;20033;-74
2023/01/18 02:59:38;;;;;;;22.85;10.07;;;;;;;-4.17;100.00;99122.88;5029660;28;20477;-75
2023/01/18 03:02:15;;;;;;;15.35;7.97;;;;;;;-4.18;100.00;99125.59;5028798;28;20233;-74
2023/01/18 03:04:53;;;;;;;16.15;9.18;;;;;;;-4.20;100.00;99120.31;5028686;28;20135;-74
2023/01/18 03:07:23;;;;;;;14.75;8.68;;;;;;;-4.22;100.00;99113.38;5028117;28;20538;-74
2023/01/18 03:09:49;;;;;;;20.60;9.40;;;;;;;-4.24;100.00;99115.22;5027942;28;20045;-74
2023/01/18 03:12:22;;;;;;;18.45;8.70;;;;;;;-4.25;100.00;99121.44;5029769;28;20029;-74
2023/01/18 03:15:09;;;;;;;21.95;9.68;;;;;;;-4.26;100.00;99125.03;5029471;28;20109;-74
2023/01/18 03:17:42;;;;;;;15.50;8.77;;;;;;;-4.28;100.00;99121.59;5029624;28;20037;-74
2023/01/18 03:20:14;;;;;;;17.55;8.82;;;;;;;-4.34;100.00;99108.53;5029448;28;20477;-74
2023/01/18 03:25:35;;;;;;;17.17;8.02;;;;;;;-4.38;100.00;99121.94;5029203;28;20029;-74
2023/01/18 03:33:46;;;;;;;19.85;8.68;;;;;;;-4.38;100.00;99121.94;5029881;28;20516;-74
2023/01/18 03:36:27;;;;;;;19.23;9.02;;;;;;;-4.40;100.00;99121.13;5027335;28;20047;-74
2023/01/18 03:39:01;;;;;;;16.60;9.15;;;;;;;-4.38;100.00;99124.59;5028845;28;20037;-74
2023/01/18 03:41:30;;;;;;;16.85;9.77;;;;;;;-4.36;100.00;99130.69;5011066;28;20045;-74
2023/01/18 03:43:59;;;;;;;20.92;9.43;;;;;;;-4.35;100.00;99131.56;5029105;28;20029;-74
2023/01/18 03:46:28;;;;;;;19.70;8.60;;;;;;;-4.36;100.00;99129.84;5028799;28;20489;-74
2023/01/18 03:48:54;;;;;;;14.80;8.68;;;;;;;-4.38;100.00;99132.56;5028615;28;20052;-74
2023/01/18 03:51:30;;;;;;;19.77;9.02;;;;;;;-4.41;100.00;99135.31;5027321;28;20048;-74
2023/01/18 03:54:09;;;;;;;22.92;9.10;;;;;;;-4.43;100.00;99136.31;5027678;28;20053;-74
2023/01/18 03:56:46;;;;;;;21.15;9.65;;;;;;;-4.44;100.00;99142.53;5027541;28;20044;-74
2023/01/18 03:59:12;;;;;;;17.38;8.45;;;;;;;-4.47;100.00;99148.00;5028052;28;20095;-74
2023/01/18 04:01:38;;;;;;;16.40;8.77;;;;;;;-4.48;100.00;99162.16;5047401;28;20020;-74
2023/01/18 04:04:04;;;;;;;18.52;8.77;;;;;;;-4.48;100.00;99164.81;5046921;28;20044;-74
2023/01/18 04:06:31;;;;;;;22.05;9.15;;;;;;;-4.49;100.00;99169.25;5032148;28;20029;-74
2023/01/18 04:08:56;;;;;;;19.30;9.75;;;;;;;-4.48;100.00;99173.63;5028585;28;20033;-74
2023/01/18 04:11:21;;;;;;;19.23;10.02;;;;;;;-4.49;100.00;99169.25;5028540;28;20041;-74
2023/01/18 04:13:47;;;;;;;20.60;10.13;;;;;;;-4.52;100.00;99174.69;5028477;28;20068;-74
2023/01/18 04:16:12;;;;;;;17.58;9.77;;;;;;;-4.54;100.00;99179.19;5027714;28;20125;-74
2023/01/18 04:18:38;;;;;;;19.30;10.10;;;;;;;-4.51;100.00;99181.72;5010933;28;20042;-74
2023/01/18 04:21:04;;;;;;;16.92;8.95;;;;;;;-4.48;100.00;99183.38;5009598;28;20029;-73
2023/01/18 04:23:29;;;;;;;18.00;9.75;;;;;;;-4.48;100.00;99186.91;5028530;28;20090;-74
2023/01/18 04:25:54;;;;;;;18.17;8.77;;;;;;;-4.53;100.00;99180.03;5027001;28;20033;-74
2023/01/18 04:28:26;;;;;;;25.27;8.85;;;;;;;-4.50;100.00;99187.91;5010598;28;20068;-74
2023/01/18 04:30:55;;;;;;;17.02;9.10;;;;;;;-4.50;100.00;99182.59;5010088;28;20030;-74
2023/01/18 04:33:22;;;;;;;16.35;8.25;;;;;;;-4.51;100.00;99184.38;5026942;28;20033;-74
2023/01/18 04:35:49;;;;;;;14.98;9.20;;;;;;;-4.56;100.00;99183.69;5027048;28;20540;-74
2023/01/18 04:38:15;;;;;;;17.25;9.77;;;;;;;-4.53;100.00;99190.66;5028368;28;20033;-74
2023/01/18 04:40:41;;;;;;;17.90;8.52;;;;;;;-4.54;100.00;99178.31;5026713;28;20044;-75
2023/01/18 04:43:07;;;;;;;17.65;8.68;;;;;;;-4.54;100.00;99195.09;5010501;28;20489;-74
2023/01/18 04:45:33;;;;;;;19.58;9.93;;;;;;;-4.56;100.00;99193.44;5026100;28;20340;-74
2023/01/18 04:47:58;;;;;;;16.38;8.32;;;;;;;-4.62;100.00;99184.78;5026484;28;20397;-74
2023/01/18 04:50:24;;;;;;;17.63;8.35;;;;;;;-4.60;100.00;99192.69;5026671;28;20057;-74
2023/01/18 04:52:49;;;;;;;21.40;9.82;;;;;;;-4.60;100.00;99198.00;5009920;28;20037;-74
2023/01/18 04:55:15;;;;;;;20.15;9.60;;;;;;;-4.63;100.00;99203.41;5010166;28;20026;-74
2023/01/18 04:57:44;;;;;;;16.55;9.32;;;;;;;-4.67;100.00;99194.69;5027406;28;20481;-74
2023/01/18 05:00:15;;;;;;;22.13;9.65;;;;;;;-4.71;100.00;99190.44;5026697;28;20471;-74
2023/01/18 05:02:41;;;;;;;24.38;9.75;;;;;;;-4.68;100.00;99206.22;5027119;28;20041;-73
2023/01/18 05:05:07;;;;;;;22.25;10.70;;;;;;;-4.68;100.00;99211.53;5027491;28;20045;-74
2023/01/18 05:07:32;;;;;;;16.98;10.05;;;;;;;-4.67;100.00;99209.75;5026460;28;20033;-75
2023/01/18 05:10:01;;;;;;;19.40;10.10;;;;;;;-4.67;100.00;99218.56;5047909;28;20040;-74
2023/01/18 05:12:27;;;;;;;17.88;9.93;;;;;;;-4.67;100.00;99213.25;5027726;28;20075;-74
2023/01/18 05:14:53;;;;;;;20.67;9.90;;;;;;;-4.68;100.00;99219.50;5025694;28;20484;-74
2023/01/18 05:17:18;;;;;;;20.70;10.52;;;;;;;-4.67;100.00;99217.69;5028148;28;20033;-74
2023/01/18 05:19:45;;;;;;;26.15;10.73;;;;;;;-4.65;100.00;99207.91;5027462;28;20053;-74
2023/01/18 05:22:11;;;;;;;22.45;9.82;;;;;;;-4.57;100.00;99223.53;5044094;28;20082;-74
2023/01/18 05:24:36;;;;;;;20.13;9.70;;;;;;;-4.50;100.00;99222.38;5047703;28;20032;-75
2023/01/18 05:27:02;;;;;;;16.20;9.85;;;;;;;-4.49;100.00;99214.38;5030362;28;20369;-74
2023/01/18 05:29:27;;;;;;;25.58;10.73;;;;;;;-4.47;100.00;99223.16;5026103;28;20041;-74
2023/01/18 05:31:52;;;;;;;18.88;9.63;;;;;;;-4.47;100.00;99228.47;5026277;28;20036;-74
2023/01/18 05:34:18;;;;;;;21.50;11.27;;;;;;;-4.48;100.00;99233.81;5026968;28;20025;-74
2023/01/18 05:36:43;;;;;;;19.67;10.27;;;;;;;-4.45;100.00;99233.69;5030693;28;20024;-75
2023/01/18 05:39:09;;;;;;;22.00;10.45;;;;;;;-4.47;100.00;99236.41;5009929;28;20595;-75
2023/01/18 05:41:36;;;;;;;16.52;9.75;;;;;;;-4.48;100.00;99229.34;5027178;28;20042;-74
2023/01/18 05:44:01;;;;;;;21.23;10.05;;;;;;;-4.48;100.00;99239.09;5009412;28;20111;-74
2023/01/18 05:46:27;;;;;;;23.48;10.50;;;;;;;-4.51;100.00;99240.09;5009349;28;20120;-74
2023/01/18 05:48:57;;;;;;;24.42;9.85;;;;;;;-4.52;100.00;99235.72;5027480;28;20048;-74
2023/01/18 05:51:22;;;;;;;18.60;10.55;;;;;;;-4.53;100.00;99238.41;5025856;28;20110;-74
2023/01/18 05:53:47;;;;;;;22.50;9.88;;;;;;;-4.54;100.00;99247.31;5025798;28;20473;-73
2023/01/18 05:56:14;;;;;;;19.80;9.82;;;;;;;-4.55;100.00;99248.22;5028312;28;20481;-75
2023/01/18 05:58:39;;;;;;;25.13;10.30;;;;;;;-4.59;100.00;99257.22;5037248;28;20035;-74
2023/01/18 06:01:06;;;;;;;20.27;10.30;;;;;;;-4.57;100.00;99268.63;5034035;28;20388;-74
2023/01/18 06:03:31;;;;;;;20.38;10.40;;;;;;;-4.65;100.00;99256.53;5030232;28;20370;-74
2023/01/18 06:05:57;;;;;;;23.25;10.85;;;;;;;-4.58;100.00;99261.59;5012371;28;20285;-74
2023/01/18 06:08:23;;;;;;;21.60;10.43;;;;;;;-4.57;100.00;99256.25;5013147;28;20025;-75
2023/01/18 06:10:57;;;;;;;19.63;11.13;;;;;;;-4.56;100.00;99263.28;5032946;28;20033;-74
2023/01/18 06:13:23;;;;;;;23.05;11.98;;;;;;;-4.55;100.00;99267.66;5040330;28;20108;-74
2023/01/18 06:15:50;;;;;;;24.30;12.00;;;;;;;-4.53;100.00;99268.47;5028958;28;20031;-74
2023/01/18 06:18:16;;;;;;;26.88;12.85;;;;;;;-4.49;100.00;99279.84;5013295;28;20072;-74
2023/01/18 06:20:41;;;;;;;22.67;12.43;;;;;;;-4.49;100.00;99274.53;5029908;28;20106;-74
2023/01/18 06:23:07;;;;;;;22.63;11.65;;;;;;;-4.49;100.00;99274.53;5030824;28;20059;-74
2023/01/18 06:25:32;;;;;;;29.02;13.35;;;;;;;-4.47;100.00;99285.97;5029024;28;20037;-74
2023/01/18 06:27:58;;;;;;;23.17;12.20;;;;;;;-4.52;100.00;99291.44;5034936;28;20037;-75
2023/01/18 06:30:24;;;;;;;23.13;12.68;;;;;;;-4.53;100.00;99304.75;5037998;28;20551;-74
2023/01/18 06:32:49;;;;;;;27.80;12.27;;;;;;;-4.54;100.00;99300.38;5029000;28;20033;-74
2023/01/18 06:35:15;;;;;;;23.67;12.40;;;;;;;-4.55;100.00;99310.13;5028895;28;20037;-74
2023/01/18 06:37:40;;;;;;;24.88;12.88;;;;;;;-4.57;100.00;99297.81;5030323;28;20159;-74
2023/01/18 06:40:08;;;;;;;22.40;12.23;;;;;;;-4.57;100.00;99298.72;5030379;28;20048;-74
2023/01/18 06:42:33;;;;;;;26.38;12.32;;;;;;;-4.59;100.00;99299.69;5028805;28;20188;-74
2023/01/18 06:44:58;;;;;;;28.92;11.52;;;;;;;-4.57;100.00;99306.69;5029766;28;20104;-74
2023/01/18 06:47:24;;;;;;;23.85;12.30;;;;;;;-4.59;100.00;99304.97;5028916;28;20168;-74
2023/01/18 06:49:49;;;;;;;24.00;12.48;;;;;;;-4.60;100.00;99313.88;5028287;28;20091;-74
2023/01/18 06:52:15;;;;;;;28.20;11.68;;;;;;;-4.63;100.00;99314.81;5029780;28;20029;-74
2023/01/18 06:54:40;;;;;;;23.08;12.50;;;;;;;-4.63;100.00;99321.00;5030626;28;20045;-74
2023/01/18 06:57:06;;;;;;;23.10;12.38;;;;;;;-4.65;100.00;99322.84;5012343;28;20025;-74
2023/01/18 06:59:31;;;;;;;30.40;13.50;;;;;;;-4.65;100.00;99324.66;5028510;28;20480;-74
2023/01/18 07:01:56;;;;;;;21.23;12.00;;;;;;;-4.64;100.00;99329.88;5012190;28;20073;-74
2023/01/18 07:04:22;;;;;;;23.50;12.93;;;;;;;-4.63;100.00;99336.06;5011543;28;20366;-74
2023/01/18 07:06:47;;;;;;;25.17;13.68;;;;;;;-4.67;100.00;99329.13;5028094;28;20121;-74
2023/01/18 07:09:13;;;;;;;25.35;11.95;;;;;;;-4.63;100.00;99338.72;5033855;28;20490;-74
2023/01/18 07:11:42;;;;;;;28.95;13.48;;;;;;;-4.65;100.00;99353.81;5048138;28;20051;-74
2023/01/18 07:14:11;;;;;;;22.10;12.50;;;;;;;-4.66;100.00;99354.75;5032893;28;20041;-74
2023/01/18 07:16:37;;;;;;;28.88;12.52;;;;;;;-4.67;100.00;99355.66;5044446;28;20132;-74
2023/01/18 07:19:03;;;;;;;25.52;13.10;;;;;;;-4.67;100.00;99360.94;5044699;28;20029;-74
2023/01/18 07:21:29;;;;;;;29.23;12.48;;;;;;;-4.68;100.00;99359.22;5029080;28;20124;-74
2023/01/18 07:23:56;;;;;;;28.45;12.93;;;;;;;-4.65;100.00;99364.44;5028061;28;20021;-74
2023/01/18 07:26:23;;;;;;;27.83;13.32;;;;;;;-4.67;100.00;99356.50;5028109;28;20047;-74
2023/01/18 07:28:48;;;;;;;31.70;13.45;;;;;;;-4.62;100.00;99364.31;5028828;28;20063;-74
2023/01/18 07:31:16;;;;;;;27.58;12.38;;;;;;;-4.61;100.00;99363.41;5027677;28;20034;-74
2023/01/18 07:33:41;;;;;;;26.50;13.07;;;;;;;-4.57;100.00;99364.16;5029478;28;20443;-73
2023/01/18 07:36:09;;;;;;;27.00;13.18;;;;;;;-4.57;100.00;99361.50;5027322;28;20042;-74
2023/01/18 07:38:35;;;;;;;24.00;12.77;;;;;;;-4.53;100.00;99377.25;5029419;28;20029;-74
2023/01/18 07:41:07;;;;;;;29.08;13.27;;;;;;;-4.51;100.00;99375.44;5027299;28;20049;-74
2023/01/18 07:43:33;;;;;;;24.08;13.10;;;;;;;-4.48;100.00;99374.44;5042761;28;20033;-75
2023/01/18 07:45:59;;;;;;;24.45;14.15;;;;;;;-4.43;100.00;99367.19;5029230;28;20052;-74
2023/01/18 07:48:26;;;;;;;28.65;13.98;;;;;;;-4.37;100.00;99378.47;5029368;28;20116;-74
2023/01/18 07:51:00;;;;;;;26.85;13.23;;;;;;;-4.34;100.00;99380.13;5026660;28;20153;-74
2023/01/18 07:53:26;;;;;;;20.48;12.90;;;;;;;-4.28;100.00;99379.94;5028241;28;20041;-74
2023/01/18 07:55:52;;;;;;;25.63;13.45;;;;;;;-4.24;100.00;99380.69;5010809;28;20547;-73
2023/01/18 07:58:18;;;;;;;30.63;14.10;;;;;;;-4.21;100.00;99389.41;5010944;28;20037;-74
2023/01/18 08:00:45;;;;;;;26.45;13.70;;;;;;;-4.18;100.00;99389.28;5027335;28;20033;-74
2023/01/18 08:03:15;;;;;;;28.85;14.50;;;;;;;-4.15;100.00;99388.31;5028337;28;20097;-74
2023/01/18 08:05:42;;;;;;;26.50;14.50;;;;;;;-4.15;100.00;99393.63;5028021;28;20057;-75
2023/01/18 08:08:12;;;;;;;26.52;12.57;;;;;;;-4.15;100.00;99397.16;5027490;28;20045;-74
2023/01/18 08:10:38;;;;;;;27.73;12.02;;;;;;;-4.14;100.00;99396.22;5028405;28;20045;-74
2023/01/18 08:13:05;;;;;;;27.17;13.25;;;;;;;-4.11;100.00;99405.84;5027079;28;20084;-74
2023/01/18 08:15:31;;;;;;;27.23;13.32;;;;;;;-4.11;100.00;99403.19;5027004;28;20076;-74
2023/01/18 08:18:00;;;;;;;25.92;13.77;;;;;;;-4.08;100.00;99412.88;5028381;28;20377;-74
2023/01/18 08:20:25;;;;;;;27.35;14.13;;;;;;;-4.08;100.00;99400.44;5010495;28;20055;-74
2023/01/18 08:22:55;;;;;;;29.85;12.75;;;;;;;-4.03;100.00;99410.91;5031430;28;20148;-75
2023/01/18 08:25:22;;;;;;;22.65;12.77;;;;;;;-4.05;100.00;99410.09;5046867;28;20555;-75
2023/01/18 08:27:47;;;;;;;23.00;12.75;;;;;;;-4.06;100.00;99408.34;5044396;28;20037;-74
2023/01/18 08:30:13;;;;;;;21.95;12.70;;;;;;;-4.05;100.00;99416.28;5028353;28;20053;-74
2023/01/18 08:32:38;;;;;;;23.88;12.80;;;;;;;-4.00;100.00;99424.94;5036755;28;20036;-74
2023/01/18 08:35:04;;;;;;;21.88;13.20;;;;;;;-3.98;100.00;99416.91;5046613;28;20040;-74
2023/01/18 08:37:29;;;;;;;23.20;12.77;;;;;;;-3.95;100.00;99419.47;5044157;28;20112;-74
2023/01/18 08:39:54;;;;;;;21.00;13.10;;;;;;;-3.93;100.00;99426.44;5028178;28;20049;-74
2023/01/18 08:42:20;;;;;;;27.20;13.32;;;;;;;-3.89;100.00;99441.34;5026213;28;20135;-74
2023/01/18 08:44:47;;;;;;;20.50;12.52;;;;;;;-3.86;100.00;99441.25;5041718;28;20037;-74
2023/01/18 08:47:14;;;;;;;33.50;12.40;;;;;;;-3.83;100.00;99442.03;5028572;28;20400;-75
2023/01/18 08:49:40;;;;;;;27.60;12.88;;;;;;;-3.81;100.00;99449.06;5026914;28;20048;-74
2023/01/18 08:52:05;;;;;;;24.02;11.18;;;;;;;-3.76;100.00;99451.53;5027502;28;20108;-74
2023/01/18 08:54:31;;;;;;;27.98;12.40;;;;;;;-3.71;100.00;99460.22;5026202;28;20029;-74
2023/01/18 08:56:56;;;;;;;23.10;11.82;;;;;;;-3.66;100.00;99453.78;5028169;28;20041;-73
2023/01/18 08:59:22;;;;;;;26.50;12.52;;;;;;;-3.62;100.00;99457.22;5026890;28;20095;-74
2023/01/18 09:01:48;;;;;;;26.58;13.50;;;;;;;-3.54;100.00;99459.56;5026503;28;20084;-75
2023/01/18 09:04:13;;;;;;;26.42;12.32;;;;;;;-3.50;100.00;99467.38;5025995;28;20072;-75
2023/01/18 09:06:39;;;;;;;26.35;13.98;;;;;;;-3.41;100.00;99471.47;5028547;28;20037;-73
2023/01/18 09:09:04;;;;;;;27.42;13.35;;;;;;;-3.36;100.00;99466.84;5027502;28;20029;-74
2023/01/18 09:11:29;;;;;;;28.10;13.93;;;;;;;-3.32;100.00;99465.81;5010205;28;20524;-74
2023/01/18 09:13:55;;;;;;;25.05;13.02;;;;;;;-3.26;100.00;99475.38;5026140;28;20128;-74
2023/01/18 09:16:21;;;;;;;30.42;13.30;;;;;;;-3.21;100.00;99468.94;5026667;28;20515;-74
2023/01/18 09:18:48;;;;;;;23.05;13.15;;;;;;;-3.13;100.00;99479.25;5026482;28;20071;-75
2023/01/18 09:21:16;;;;;;;25.73;13.90;;;;;;;-3.09;100.00;99475.56;5025914;28;20026;-76
2023/01/18 09:23:42;;;;;;;20.38;12.00;;;;;;;-3.02;100.00;99485.06;5028214;28;20515;-74
2023/01/18 09:26:15;;;;;;;23.77;13.02;;;;;;;-2.95;100.00;99491.00;5026480;28;20029;-73
2023/01/18 09:28:47;;;;;;;25.63;12.02;;;;;;;-2.89;100.00;99501.38;5030903;28;20128;-74
2023/01/18 09:31:13;;;;;;;23.83;13.30;;;;;;;-2.85;100.00;99495.00;5027266;28;20033;-73
2023/01/18 09:33:41;;;;;;;29.48;13.65;;;;;;;-2.77;100.00;99494.72;5044266;28;20762;-73
2023/01/18 09:36:08;;;;;;;24.52;12.85;;;;;;;-2.67;100.00;99506.72;5050303;28;20048;-74
2023/01/18 09:38:35;;;;;;;22.27;13.15;;;;;;;-2.59;100.00;99504.63;5034763;28;20625;-74
2023/01/18 09:41:02;;;;;;;22.13;12.40;;;;;;;-2.54;100.00;99501.78;5035726;28;20473;-73
2023/01/18 09:43:37;;;;;;;18.88;11.48;;;;;;;-2.46;100.00;99507.66;5032718;28;20033;-73
2023/01/18 09:46:04;;;;;;;24.45;11.63;;;;;;;-2.39;100.00;99512.66;5031013;28;20749;-72
2023/01/18 09:48:36;;;;;;;26.48;13.93;;;;;;;-2.30;100.00;99514.09;5030839;28;20025;-72
2023/01/18 09:51:08;;;;;;;24.02;13.40;;;;;;;-2.24;100.00;99515.63;5028946;28;20041;-73
2023/01/18 09:53:54;;;;;;;25.40;13.13;;;;;;;-2.14;100.00;99514.31;5031376;28;20504;-73
2023/01/18 09:56:31;;;;;;;19.73;11.90;;;;;;;-2.06;100.00;99520.19;5050890;28;20037;-73
2023/01/18 09:59:24;;;;;;;23.52;11.95;;;;;;;-1.99;100.00;99520.81;5037634;28;20116;-72
2023/01/18 10:01:50;;;;;;;;;;;;;;;-1.91;100.00;99518.66;5031487;28;20114;-73
2023/01/18 10:04:31;;;;;;;21.25;12.38;;;;;;;-1.85;100.00;99521.94;5030393;28;20390;-73
2023/01/18 10:07:04;;;;;;;25.50;11.52;;;;;;;-1.76;100.00;99522.47;5029891;28;20030;-72
2023/01/18 10:09:41;;;;;;;17.95;10.50;;;;;;;-1.68;100.00;99526.56;5030423;28;20037;-73
2023/01/18 10:12:25;;;;;;;24.60;11.93;;;;;;;-1.61;100.00;99528.00;5030768;28;20500;-73
2023/01/18 10:15:06;;;;;;;22.80;12.10;;;;;;;-1.48;100.00;99532.78;5044069;28;20060;-73
2023/01/18 10:17:42;;;;;;;21.13;11.80;;;;;;;-1.40;100.00;99535.97;5029305;28;20094;-73
2023/01/18 10:20:34;;;;;;;25.63;11.88;;;;;;;-1.32;100.00;99534.69;5045362;28;20033;-73
2023/01/18 10:23:11;;;;;;;21.90;12.38;;;;;;;-1.23;100.00;99528.06;5029144;28;20091;-73
2023/01/18 10:25:53;;;;;;;20.05;10.45;;;;;;;-1.14;100.00;99533.00;5030042;28;20041;-73
2023/01/18 10:28:31;;;;;;;18.65;11.90;;;;;;;-1.07;100.00;99531.78;5030051;28;20040;-73
2023/01/18 10:31:02;;;;;;;18.42;12.48;;;;;;;-0.96;100.00;99533.09;5028163;28;20095;-74
2023/01/18 10:33:37;;;;;;;20.27;12.23;;;;;;;-0.90;100.00;99532.78;5028553;28;20068;-75
2023/01/18 10:36:15;;;;;;;26.40;12.55;;;;;;;-0.81;100.00;99530.56;5028299;28;20503;-74
2023/01/18 10:38:42;;;;;;;23.75;11.60;;;;;;;-0.69;100.00;99537.13;5012914;28;20037;-74
2023/01/18 10:41:17;;;;;;;24.83;12.02;;;;;;;-0.60;100.00;99538.50;5029631;28;20061;-75
2023/01/18 10:43:43;;;;;;;20.85;12.38;;;;;;;-0.49;100.00;99532.66;5030150;28;20029;-73
2023/01/18 10:46:16;;;;;;;18.50;11.65;;;;;;;-0.38;100.00;99528.50;5028223;28;20059;-74
2023/01/18 10:48:53;;;;;;;18.02;11.65;;;;;;;-0.30;100.00;99530.81;5030240;28;20076;-74
2023/01/18 10:51:39;;;;;;;20.00;11.02;;;;;;;-0.21;100.00;99533.03;5028017;28;20048;-74
2023/01/18 10:54:16;;;;;;;23.25;11.63;;;;;;;-0.08;100.00;99534.16;5028349;28;20503;-74
2023/01/18 10:56:42;;;;;;;28.75;12.90;;;;;;;0.00;100.00;99539.13;5028787;28;20049;-75
2023/01/18 10:59:23;;;;;;;24.40;12.27;;;;;;;0.09;100.00;99541.31;5028006;28;20033;-75
2023/01/18 11:01:53;;;;;;;20.60;10.90;;;;;;;0.19;100.00;99531.91;5029644;28;20041;-74
2023/01/18 11:04:27;;;;;;;20.38;11.13;;;;;;;0.35;100.00;99544.47;5027590;28;20034;-74
2023/01/18 11:06:56;;;;;;;17.45;10.60;;;;;;;0.42;100.00;99538.72;5029047;28;20148;-75
2023/01/18 11:09:46;;;;;;;20.23;10.95;;;;;;;0.53;100.00;99540.84;5029401;28;20042;-75
2023/01/18 11:12:32;;;;;;;21.85;10.48;;;;;;;0.66;99.87;99547.28;5028268;28;20079;-75
2023/01/18 11:15:15;;;;;;;20.15;10.48;;;;;;;0.74;99.16;99546.84;5042772;28;20049;-75
2023/01/18 11:17:49;;;;;;;17.50;9.88;;;;;;;0.86;98.12;99553.38;5029929;28;20442;-75
2023/01/18 11:20:23;;;;;;;17.83;10.48;;;;;;;0.90;96.92;99557.63;5027755;28;20045;-76
2023/01/18 11:23:13;;;;;;;22.23;10.48;;;;;;;0.95;97.17;99555.56;5028475;28;20045;-76
2023/01/18 11:25:50;;;;;;;18.83;10.55;;;;;;;1.03;97.46;99548.00;5029063;28;20091;-77
2023/01/18 11:28:47;;;;;;;14.77;9.77;;;;;;;1.13;97.72;99538.50;5027886;28;20070;-77
2023/01/18 11:31:14;;;;;;;16.27;9.75;;;;;;;1.20;96.43;99529.16;5019698;28;20465;-77
2023/01/18 11:33:50;;;;;;;20.13;9.30;;;;;;;1.30;96.53;99537.56;5031547;28;20420;-77
2023/01/18 11:36:18;;;;;;;15.13;9.32;;;;;;;1.37;95.83;99541.63;5028577;28;20059;-77
2023/01/18 11:38:45;;;;;;;17.95;10.30;;;;;;;1.47;96.55;99544.66;5028202;28;20369;-78
2023/01/18 11:41:22;;;;;;;17.77;9.10;;;;;;;1.57;96.98;99542.31;5029500;28;20128;-78
2023/01/18 11:44:06;;;;;;;14.38;9.48;;;;;;;1.67;95.94;99546.22;5036851;28;20436;-78
2023/01/18 11:46:54;;;;;;;16.55;9.15;;;;;;;1.75;95.64;99541.28;5027420;28;20033;-78
2023/01/18 11:49:41;;;;;;;19.60;9.80;;;;;;;1.82;94.59;99539.09;5028668;28;20037;-78
2023/01/18 11:52:11;;;;;;;21.88;9.45;;;;;;;1.89;93.68;99548.53;5026860;28;20040;-79
2023/01/18 11:54:54;;;;;;;14.75;9.05;;;;;;;1.96;94.54;99539.19;5027235;28;20529;-78
2023/01/18 11:57:20;;;;;;;12.25;8.43;;;;;;;2.01;93.07;99537.97;5027516;28;20038;-78